createdAt,value
2022-11-09T00:01:10.708Z,149.15
2022-11-09T00:06:38.825Z,138.07
2022-11-09T00:12:04.964Z,129.88
2022-11-09T00:17:29.301Z,143.27
2022-11-09T00:23:00.003Z,128.70
2022-11-09T00:28:28.556Z,121.35
2022-11-09T00:33:55.667Z,121.75
2022-11-09T00:39:20.477Z,123.40
2022-11-09T00:44:43.946Z,121.03
2022-11-09T00:50:07.769Z,137.50
2022-11-09T00:55:38.512Z,121.88
2022-11-09T01:01:11.236Z,136.93
2022-11-09T01:06:34.429Z,126.35
2022-11-09T01:12:06.617Z,134.50
2022-11-09T01:17:35.191Z,140.68
2022-11-09T01:23:04.411Z,134.32
2022-11-09T01:28:35.234Z,139.68
2022-11-09T01:33:59.860Z,150.73
2022-11-09T01:39:24.823Z,141.68
2022-11-09T01:45:06.023Z,148.10
2022-11-09T01:50:40.747Z,135.98
2022-11-09T01:56:14.980Z,163.50
2022-11-09T02:01:46.806Z,159.23
2022-11-09T02:07:15.742Z,155.07
2022-11-09T02:12:45.869Z,150.32
2022-11-09T02:18:16.060Z,153.45
2022-11-09T02:23:47.465Z,143.45
2022-11-09T02:29:26.061Z,141.00
2022-11-09T02:34:48.994Z,154.35
2022-11-09T02:40:22.061Z,149.73
2022-11-09T02:45:51.660Z,159.07
2022-11-09T02:51:14.947Z,157.90
2022-11-09T02:56:43.013Z,146.43
2022-11-09T03:02:06.807Z,132.02
2022-11-09T03:07:30.415Z,115.45
2022-11-09T03:13:00.828Z,108.10
2022-11-09T03:18:25.002Z,117.65
2022-11-09T03:23:54.011Z,110.63
2022-11-09T03:29:25.225Z,120.43
2022-11-09T03:34:54.709Z,117.63
2022-11-09T03:40:23.647Z,113.87
2022-11-09T03:51:23.720Z,115.30
2022-11-09T03:56:48.784Z,138.70
2022-11-09T04:02:13.748Z,148.38
2022-11-09T04:07:47.863Z,160.05
2022-11-09T04:13:11.442Z,146.15
2022-11-09T04:18:41.356Z,149.65
2022-11-09T04:24:06.220Z,140.48
2022-11-09T04:29:34.539Z,146.68
2022-11-09T04:34:59.359Z,150.82
2022-11-09T04:40:31.340Z,145.23
2022-11-09T04:46:02.065Z,133.73
2022-11-09T04:51:31.976Z,143.15
2022-11-09T04:56:56.457Z,152.65
2022-11-09T05:02:25.708Z,152.05
2022-11-09T05:07:51.436Z,141.43
2022-11-09T05:13:15.126Z,134.70
2022-11-09T05:18:43.614Z,128.13
2022-11-09T05:24:14.237Z,133.07
2022-11-09T05:29:43.003Z,118.85
2022-11-09T05:35:12.032Z,108.78
2022-11-09T05:40:37.989Z,98.65
2022-11-09T05:46:08.343Z,95.32
2022-11-09T05:57:07.884Z,97.72
2022-11-09T06:02:36.407Z,85.68
2022-11-09T06:08:06.739Z,94.60
2022-11-09T06:19:05.326Z,84.78
2022-11-09T06:24:34.544Z,83.78
2022-11-09T06:30:04.109Z,91.80
2022-11-09T06:35:32.760Z,78.45
2022-11-09T06:40:56.913Z,72.75
2022-11-09T06:46:27.177Z,75.68
2022-11-09T06:51:54.601Z,70.57
2022-11-09T06:57:23.906Z,83.53
2022-11-09T07:02:54.478Z,78.15
2022-11-09T07:08:23.785Z,78.28
2022-11-09T07:13:57.264Z,73.45
2022-11-09T07:19:29.632Z,68.25
2022-11-09T07:24:52.669Z,68.97
2022-11-09T07:30:21.890Z,72.93
2022-11-09T07:35:52.004Z,69.03
2022-11-09T07:41:15.863Z,98.28
2022-11-09T07:46:39.127Z,81.97
2022-11-09T07:52:04.815Z,94.00
2022-11-09T07:57:28.154Z,78.63
2022-11-09T08:02:51.393Z,77.18
2022-11-09T08:08:17.287Z,80.13
2022-11-09T08:13:44.821Z,71.53
2022-11-09T08:19:11.699Z,76.40
2022-11-09T08:24:44.197Z,83.45
2022-11-09T08:30:08.852Z,83.07
2022-11-09T08:35:39.710Z,75.32
2022-11-09T08:41:09.270Z,93.72
2022-11-09T08:46:40.973Z,82.57
2022-11-09T08:52:04.666Z,93.28
2022-11-09T08:57:31.810Z,78.47
2022-11-09T09:08:57.500Z,101.15
2022-11-09T09:14:26.972Z,77.10
2022-11-09T09:19:56.044Z,83.68
2022-11-09T09:25:20.803Z,69.65
2022-11-09T09:30:52.587Z,79.00
2022-11-09T09:36:21.881Z,86.75
2022-11-09T09:41:54.168Z,72.22
2022-11-09T09:47:23.659Z,57.30
2022-11-09T09:53:18.075Z,58.95
2022-11-09T09:58:50.711Z,74.75
2022-11-09T10:04:24.671Z,73.47
2022-11-09T10:10:11.336Z,62.00
2022-11-09T10:15:46.193Z,66.80
2022-11-09T10:21:30.347Z,68.38
2022-11-09T10:27:01.844Z,64.43
2022-11-09T10:32:33.465Z,74.10
2022-11-09T10:38:05.238Z,76.20
2022-11-09T10:43:34.752Z,107.35
2022-11-09T10:49:23.249Z,83.70
2022-11-09T10:55:30.651Z,74.85
2022-11-09T11:01:22.320Z,93.80
2022-11-09T11:07:20.757Z,70.25
2022-11-09T11:13:27.847Z,66.38
2022-11-09T11:19:33.075Z,57.70
2022-11-09T11:30:30.484Z,50.10
2022-11-09T11:36:25.946Z,52.10
2022-11-09T11:42:30.453Z,36.90
2022-11-09T11:48:39.113Z,33.55
2022-11-09T11:54:38.957Z,38.45
2022-11-09T12:00:26.827Z,38.88
2022-11-09T12:06:31.770Z,33.00
2022-11-09T12:12:31.750Z,46.63
2022-11-09T12:18:35.503Z,33.72
2022-11-09T12:24:30.522Z,37.90
2022-11-09T12:30:21.452Z,41.17
2022-11-09T12:36:16.893Z,40.38
2022-11-09T12:42:12.479Z,34.97
2022-11-09T12:48:04.851Z,36.90
2022-11-09T12:53:52.858Z,36.55
2022-11-09T12:59:50.213Z,32.58
2022-11-09T13:05:40.418Z,36.25
2022-11-09T13:11:35.876Z,39.05
2022-11-09T13:18:03.643Z,40.05
2022-11-09T13:24:01.535Z,43.92
2022-11-09T13:29:56.043Z,38.75
2022-11-09T13:36:16.572Z,48.40
2022-11-09T13:42:26.735Z,40.03
2022-11-09T13:48:32.445Z,44.88
2022-11-09T13:54:30.748Z,33.75
2022-11-09T14:00:23.576Z,35.15
2022-11-09T14:06:13.860Z,29.77
2022-11-09T14:12:17.579Z,33.55
2022-11-09T14:18:26.630Z,29.98
2022-11-09T14:24:18.667Z,32.33
2022-11-09T14:30:17.420Z,30.95
2022-11-09T14:36:07.078Z,31.55
2022-11-09T14:41:57.753Z,40.05
2022-11-09T14:47:47.350Z,37.65
2022-11-09T14:53:38.435Z,41.45
2022-11-09T14:59:32.188Z,71.88
2022-11-09T15:05:32.090Z,79.55
2022-11-09T15:11:21.872Z,57.70
2022-11-09T15:17:16.769Z,56.80
2022-11-09T15:23:06.633Z,48.30
2022-11-09T15:28:58.969Z,46.13
2022-11-09T15:34:55.829Z,69.93
2022-11-09T15:40:43.126Z,94.38
2022-11-09T15:46:37.268Z,63.38
2022-11-09T15:52:26.278Z,59.45
2022-11-09T15:58:16.378Z,62.55
2022-11-09T16:04:05.859Z,61.50
2022-11-09T16:09:53.567Z,62.92
2022-11-09T16:15:40.921Z,58.13
2022-11-09T16:21:29.758Z,52.45
2022-11-09T16:27:43.441Z,48.92
2022-11-09T16:33:25.540Z,52.55
2022-11-09T16:39:17.303Z,51.42
2022-11-09T16:45:10.217Z,59.90
2022-11-09T16:50:58.083Z,53.50
2022-11-09T16:56:48.138Z,46.55
2022-11-09T17:02:36.289Z,42.33
2022-11-09T17:08:23.983Z,99.97
2022-11-09T17:14:13.997Z,78.93
2022-11-09T17:20:05.110Z,74.22
2022-11-09T17:25:56.599Z,73.57
2022-11-09T17:31:47.543Z,85.35
2022-11-09T17:37:38.533Z,86.10
2022-11-09T17:43:26.480Z,94.72
2022-11-09T17:49:15.768Z,91.25
2022-11-09T17:55:11.638Z,102.13
2022-11-09T18:01:07.075Z,97.80
2022-11-09T18:06:58.247Z,109.05
2022-11-09T18:12:47.686Z,97.90
2022-11-09T18:18:42.638Z,99.28
2022-11-09T18:24:32.993Z,129.55
2022-11-09T18:30:23.745Z,105.30
2022-11-09T18:36:15.071Z,111.50
2022-11-09T18:42:05.653Z,129.10
2022-11-09T18:47:56.762Z,123.95
2022-11-09T18:53:46.862Z,123.25
2022-11-09T18:59:40.060Z,112.47
2022-11-09T19:05:28.259Z,126.25
2022-11-09T19:11:19.751Z,108.45
2022-11-09T19:17:19.203Z,83.85
2022-11-09T19:23:07.836Z,84.20
2022-11-09T19:28:56.461Z,89.72
2022-11-09T19:34:46.205Z,87.15
2022-11-09T19:40:39.814Z,81.40
2022-11-09T19:46:30.506Z,77.03
2022-11-09T19:52:19.315Z,77.03
2022-11-09T19:58:07.477Z,85.43
2022-11-09T20:03:59.221Z,96.32
2022-11-09T20:09:52.007Z,97.50
2022-11-09T20:15:40.156Z,94.47
2022-11-09T20:21:27.942Z,102.90
2022-11-09T20:27:23.776Z,87.72
2022-11-09T20:33:13.899Z,88.32
2022-11-09T20:39:01.866Z,91.03
2022-11-09T20:44:54.694Z,95.03
2022-11-09T20:50:42.515Z,99.22
2022-11-09T20:56:31.816Z,88.18
2022-11-09T21:02:21.332Z,88.38
2022-11-09T21:08:09.690Z,86.93
2022-11-09T21:13:57.649Z,76.97
2022-11-09T21:19:47.085Z,81.72
2022-11-09T21:25:51.354Z,89.47
2022-11-09T21:31:38.507Z,89.97
2022-11-09T21:37:28.138Z,92.70
2022-11-09T21:43:16.078Z,96.85
2022-11-09T21:49:04.123Z,95.15
2022-11-09T21:54:53.035Z,102.60
2022-11-09T22:00:40.813Z,100.65
2022-11-09T22:06:29.231Z,96.63
2022-11-09T22:12:36.448Z,91.03
2022-11-09T22:18:47.206Z,93.60
2022-11-09T22:24:36.594Z,93.43
2022-11-09T22:30:26.269Z,90.03
2022-11-09T22:36:15.443Z,90.35
2022-11-09T22:42:02.710Z,98.78
2022-11-09T22:47:52.061Z,97.78
2022-11-09T22:53:39.728Z,96.45
2022-11-09T22:59:27.732Z,93.78
2022-11-09T23:05:17.109Z,96.00
2022-11-09T23:11:05.252Z,99.05
2022-11-09T23:16:53.495Z,89.78
2022-11-09T23:22:42.005Z,85.10
2022-11-09T23:28:29.687Z,88.88
2022-11-09T23:34:17.438Z,90.72
2022-11-09T23:40:07.803Z,112.97
2022-11-09T23:45:57.109Z,99.53
2022-11-09T23:51:44.611Z,103.40
2022-11-09T23:57:34.105Z,108.55
